Saint Thomas, Missouri
Current Conditions -  °F | °C
As of 7:53 AM on Saturday 20 Dec 2014 (Local Time) from KJEF Reporting Station
Haze Haze  
Wind Chill: 37°   Ceiling: 1000
Heat Index: 37°   Visibility: 5mi
Dew Point: 35°   Wind: 3mph
Humidity: 93%   Direction: 110°ESE
Pressure: 30.25"   Gusts: NA
Location:  38.37°N, 92.22°W
Report Text: KJEF 201353Z 11003KT 5SM BR OVC010 03/02 A3025 RMK AO2 CIG 008V012 SLP237 T00280017
Loading
Personal Weather Stations






























Interactive Weather Map New forecast layout! Learn more

10-Day Weather Forecast

Advertisements
Track Severe Weather on mobile